createdAt,value
2023-04-22T00:00:42.519Z,13.54
2023-04-22T00:01:42.232Z,13.53
2023-04-22T00:02:41.650Z,13.52
2023-04-22T00:03:42.786Z,13.51
2023-04-22T00:04:42.461Z,13.49
2023-04-22T00:05:42.280Z,13.48
2023-04-22T00:06:42.169Z,13.46
2023-04-22T00:07:42.137Z,13.43
2023-04-22T00:08:42.411Z,13.42
2023-04-22T00:09:42.380Z,13.40
2023-04-22T00:10:42.129Z,13.38
2023-04-22T00:11:42.386Z,13.36
2023-04-22T00:12:42.385Z,13.34
2023-04-22T00:13:42.091Z,13.33
2023-04-22T00:14:42.103Z,13.31
2023-04-22T00:15:42.162Z,13.30
2023-04-22T00:16:42.346Z,13.29
2023-04-22T00:17:42.074Z,13.28
2023-04-22T00:18:42.302Z,13.27
2023-04-22T00:19:42.030Z,13.25
2023-04-22T00:20:42.324Z,13.24
2023-04-22T00:21:42.267Z,13.22
2023-04-22T00:22:42.260Z,13.20
2023-04-22T00:23:42.237Z,13.18
2023-04-22T00:24:41.977Z,13.16
2023-04-22T00:25:41.972Z,13.13
2023-04-22T00:26:41.961Z,13.10
2023-04-22T00:27:41.925Z,13.08
2023-04-22T00:28:42.208Z,13.05
2023-04-22T00:29:42.176Z,13.02
2023-04-22T00:30:42.194Z,12.99
2023-04-22T00:31:42.169Z,12.97
2023-04-22T00:32:42.191Z,12.95
2023-04-22T00:33:42.128Z,12.93
2023-04-22T00:34:42.134Z,12.90
2023-04-22T00:35:42.134Z,12.89
2023-04-22T00:36:41.848Z,12.87
2023-04-22T00:37:41.812Z,12.85
2023-04-22T00:38:42.086Z,12.83
2023-04-22T00:39:42.448Z,12.82
2023-04-22T00:40:41.797Z,12.81
2023-04-22T00:41:41.790Z,12.80
2023-04-22T00:42:41.760Z,12.79
2023-04-22T00:43:42.027Z,12.80
2023-04-22T00:44:41.759Z,12.78
2023-04-22T00:45:41.742Z,12.78
2023-04-22T00:46:42.042Z,12.77
2023-04-22T00:47:41.762Z,12.75
2023-04-22T00:48:41.720Z,12.75
2023-04-22T00:49:42.046Z,12.74
2023-04-22T00:50:41.694Z,12.73
2023-04-22T00:51:41.683Z,12.70
2023-04-22T00:52:41.669Z,12.68
2023-04-22T00:53:41.662Z,12.66
2023-04-22T00:54:41.907Z,12.64
2023-04-22T00:55:41.895Z,12.62
2023-04-22T00:56:41.631Z,12.60
2023-04-22T00:57:41.901Z,12.58
2023-04-22T00:58:41.607Z,12.55
2023-04-22T00:59:42.156Z,12.54
2023-04-22T01:00:41.634Z,12.52
2023-04-22T01:01:41.841Z,12.50
2023-04-22T01:02:41.722Z,12.47
2023-04-22T01:03:42.022Z,12.45
2023-04-22T01:04:41.545Z,12.44
2023-04-22T01:05:41.542Z,12.43
2023-04-22T01:06:41.522Z,12.42
2023-04-22T01:07:41.497Z,12.41
2023-04-22T01:08:41.763Z,12.40
2023-04-22T01:09:42.017Z,12.39
2023-04-22T01:10:41.733Z,12.37
2023-04-22T01:11:41.462Z,12.37
2023-04-22T01:12:41.443Z,12.36
2023-04-22T01:13:41.466Z,12.36
2023-04-22T01:14:41.454Z,12.36
2023-04-22T01:15:41.680Z,12.36
2023-04-22T01:16:41.712Z,12.34
2023-04-22T01:17:41.732Z,12.34
2023-04-22T01:18:41.669Z,12.32
2023-04-22T01:19:42.229Z,12.31
2023-04-22T01:20:41.379Z,12.30
2023-04-22T01:21:41.355Z,12.28
2023-04-22T01:22:41.333Z,12.26
2023-04-22T01:23:41.588Z,12.25
2023-04-22T01:24:41.584Z,12.24
2023-04-22T01:25:41.317Z,12.22
2023-04-22T01:26:41.571Z,12.21
2023-04-22T01:27:41.574Z,12.20
2023-04-22T01:28:41.288Z,12.17
2023-04-22T01:29:41.982Z,12.16
2023-04-22T01:30:41.521Z,12.15
2023-04-22T01:31:41.276Z,12.14
2023-04-22T01:32:41.632Z,12.13
2023-04-22T01:33:41.227Z,12.12
2023-04-22T01:34:41.223Z,12.11
2023-04-22T01:35:41.245Z,12.09
2023-04-22T01:36:41.194Z,12.07
2023-04-22T01:37:41.188Z,12.05
2023-04-22T01:38:41.189Z,12.04
2023-04-22T01:39:41.688Z,12.02
2023-04-22T01:40:40.466Z,12.02
2023-04-22T01:41:41.148Z,11.99
2023-04-22T01:42:41.118Z,11.98
2023-04-22T01:43:40.438Z,11.97
2023-04-22T01:44:40.432Z,11.95
2023-04-22T01:45:41.126Z,11.94
2023-04-22T01:46:41.058Z,11.92
2023-04-22T01:47:40.418Z,11.91
2023-04-22T01:48:40.381Z,11.89
2023-04-22T01:49:40.701Z,11.88
2023-04-22T01:50:41.040Z,11.86
2023-04-22T01:51:40.358Z,11.84
2023-04-22T01:52:41.000Z,11.84
2023-04-22T01:53:41.277Z,11.83
2023-04-22T01:54:40.296Z,11.82
2023-04-22T01:55:41.259Z,11.81
2023-04-22T01:56:40.284Z,11.80
2023-04-22T01:57:40.297Z,11.80
2023-04-22T01:58:40.959Z,11.79
2023-04-22T01:59:41.217Z,11.78
2023-04-22T02:00:40.929Z,11.78
2023-04-22T02:01:40.291Z,11.78
2023-04-22T02:02:41.004Z,11.77
2023-04-22T02:03:40.938Z,11.77
2023-04-22T02:04:40.962Z,11.75
2023-04-22T02:05:40.906Z,11.74
2023-04-22T02:06:40.863Z,11.73
2023-04-22T02:07:40.844Z,11.73
2023-04-22T02:08:40.168Z,11.72
2023-04-22T02:09:40.463Z,11.72
2023-04-22T02:10:40.121Z,11.71
2023-04-22T02:11:41.082Z,11.70
2023-04-22T02:12:40.772Z,11.70
2023-04-22T02:13:40.792Z,11.68
2023-04-22T02:14:40.087Z,11.68
2023-04-22T02:15:40.790Z,11.67
2023-04-22T02:16:40.068Z,11.66
2023-04-22T02:17:40.731Z,11.65
2023-04-22T02:18:40.728Z,11.65
2023-04-22T02:19:41.134Z,11.64
2023-04-22T02:20:40.028Z,11.63
2023-04-22T02:21:40.014Z,11.62
2023-04-22T02:22:40.669Z,11.62
2023-04-22T02:23:40.021Z,11.61
2023-04-22T02:24:40.662Z,11.60
2023-04-22T02:25:40.663Z,11.58
2023-04-22T02:26:39.955Z,11.56
2023-04-22T02:27:39.959Z,11.56
2023-04-22T02:28:40.619Z,11.55
2023-04-22T02:29:40.938Z,11.52
2023-04-22T02:30:39.905Z,11.52
2023-04-22T02:31:40.655Z,11.51
2023-04-22T02:32:39.955Z,11.50
2023-04-22T02:33:39.948Z,11.49
2023-04-22T02:34:40.556Z,11.48
2023-04-22T02:35:40.543Z,11.47
2023-04-22T02:36:40.539Z,11.47
2023-04-22T02:37:39.843Z,11.47
2023-04-22T02:38:40.519Z,11.48
2023-04-22T02:39:39.992Z,11.48
2023-04-22T02:40:40.498Z,11.48
2023-04-22T02:41:40.492Z,11.48
2023-04-22T02:42:40.453Z,11.49
2023-04-22T02:43:40.466Z,11.50
2023-04-22T02:44:39.773Z,11.50
2023-04-22T02:45:40.448Z,11.50
2023-04-22T02:46:39.806Z,11.51
2023-04-22T02:47:39.794Z,11.51
2023-04-22T02:48:39.718Z,11.50
2023-04-22T02:49:40.018Z,11.52
2023-04-22T02:50:40.388Z,11.52
2023-04-22T02:51:39.719Z,11.54
2023-04-22T02:52:39.692Z,11.55
2023-04-22T02:53:40.352Z,11.55
2023-04-22T02:54:40.346Z,11.56
2023-04-22T02:55:40.331Z,11.57
2023-04-22T02:56:40.324Z,11.57
2023-04-22T02:57:40.294Z,11.57
2023-04-22T02:58:40.302Z,11.58
2023-04-22T02:59:40.661Z,11.57
2023-04-22T03:00:39.605Z,11.58
2023-04-22T03:01:40.290Z,11.57
2023-04-22T03:02:39.774Z,11.58
2023-04-22T03:03:40.550Z,11.56
2023-04-22T03:04:39.551Z,11.56
2023-04-22T03:05:39.552Z,11.56
2023-04-22T03:06:39.520Z,11.57
2023-04-22T03:07:39.540Z,11.57
2023-04-22T03:08:40.198Z,11.58
2023-04-22T03:09:39.804Z,11.59
2023-04-22T03:10:40.168Z,11.60
2023-04-22T03:11:40.161Z,11.61
2023-04-22T03:12:40.140Z,11.61
2023-04-22T03:13:40.153Z,11.61
2023-04-22T03:14:39.431Z,11.61
2023-04-22T03:15:40.117Z,11.61
2023-04-22T03:16:40.196Z,11.61
2023-04-22T03:17:40.137Z,11.62
2023-04-22T03:18:40.083Z,11.62
2023-04-22T03:19:40.332Z,11.63
2023-04-22T03:20:39.372Z,11.63
2023-04-22T03:21:40.059Z,11.64
2023-04-22T03:22:40.043Z,11.64
2023-04-22T03:23:39.345Z,11.64
2023-04-22T03:24:39.340Z,11.65
2023-04-22T03:25:39.316Z,11.65
2023-04-22T03:26:40.000Z,11.66
2023-04-22T03:27:39.974Z,11.66
2023-04-22T03:28:39.294Z,11.67
2023-04-22T03:29:39.453Z,11.67
2023-04-22T03:30:39.264Z,11.69
2023-04-22T03:31:39.269Z,11.69
2023-04-22T03:32:39.941Z,11.69
2023-04-22T03:33:39.238Z,11.69
2023-04-22T03:34:39.210Z,11.70
2023-04-22T03:35:39.902Z,11.71
2023-04-22T03:36:39.898Z,11.71
2023-04-22T03:37:39.878Z,11.71
2023-04-22T03:38:39.868Z,11.71
2023-04-22T03:39:40.215Z,11.71
2023-04-22T03:40:39.165Z,11.72
2023-04-22T03:41:39.166Z,11.72
2023-04-22T03:42:39.829Z,11.72
2023-04-22T03:43:39.834Z,11.72
2023-04-22T03:44:39.800Z,11.71
2023-04-22T03:45:39.163Z,11.72
2023-04-22T03:46:39.088Z,11.72
2023-04-22T03:47:39.130Z,11.72
2023-04-22T03:48:39.071Z,11.71
2023-04-22T03:49:40.027Z,11.71
2023-04-22T03:50:39.747Z,11.72
2023-04-22T03:51:39.736Z,11.72
2023-04-22T03:52:39.994Z,11.71
2023-04-22T03:53:39.004Z,11.72
2023-04-22T03:54:39.702Z,11.71
2023-04-22T03:55:39.685Z,11.71
2023-04-22T03:56:39.689Z,11.71
2023-04-22T03:57:39.006Z,11.70
2023-04-22T03:58:39.652Z,11.71
2023-04-22T03:59:39.209Z,11.71
2023-04-22T04:00:38.937Z,11.71
2023-04-22T04:01:38.919Z,11.72
2023-04-22T04:02:39.159Z,11.73
2023-04-22T04:03:39.159Z,11.73
2023-04-22T04:04:39.854Z,11.74
2023-04-22T04:05:39.756Z,11.74
2023-04-22T04:06:38.906Z,11.76
2023-04-22T04:07:38.898Z,11.76
2023-04-22T04:08:39.548Z,11.78
2023-04-22T04:09:39.076Z,11.79
2023-04-22T04:10:39.525Z,11.79
2023-04-22T04:11:39.534Z,11.80
2023-04-22T04:12:39.483Z,11.81
2023-04-22T04:13:39.504Z,11.83
2023-04-22T04:14:39.481Z,11.84
2023-04-22T04:15:38.839Z,11.85
2023-04-22T04:16:38.788Z,11.86
2023-04-22T04:17:38.846Z,11.87
2023-04-22T04:18:39.452Z,11.88
2023-04-22T04:19:39.092Z,11.89
2023-04-22T04:20:38.741Z,11.89
2023-04-22T04:21:39.389Z,11.91
2023-04-22T04:22:38.711Z,11.91
2023-04-22T04:23:38.694Z,11.92
2023-04-22T04:24:38.670Z,11.92
2023-04-22T04:25:39.387Z,11.93
2023-04-22T04:26:38.678Z,11.94
2023-04-22T04:27:38.664Z,11.95
2023-04-22T04:28:38.643Z,11.96
2023-04-22T04:29:38.947Z,11.97
2023-04-22T04:30:38.638Z,11.98
2023-04-22T04:31:38.710Z,12.00
2023-04-22T04:32:38.617Z,12.01
2023-04-22T04:33:38.581Z,12.02
2023-04-22T04:34:39.271Z,12.03
2023-04-22T04:35:39.247Z,12.04
2023-04-22T04:36:39.223Z,12.04
2023-04-22T04:37:39.229Z,12.05
2023-04-22T04:38:38.532Z,12.06
2023-04-22T04:39:38.814Z,12.06
2023-04-22T04:40:38.493Z,12.08
2023-04-22T04:41:39.174Z,12.09
2023-04-22T04:42:38.489Z,12.09
2023-04-22T04:43:38.459Z,12.11
2023-04-22T04:44:38.452Z,12.11
2023-04-22T04:45:39.143Z,12.13
2023-04-22T04:46:39.442Z,12.13
2023-04-22T04:47:39.189Z,12.14
2023-04-22T04:48:38.421Z,12.15
2023-04-22T04:49:38.594Z,12.15
2023-04-22T04:50:38.396Z,12.16
2023-04-22T04:51:39.045Z,12.17
2023-04-22T04:52:39.048Z,12.18
2023-04-22T04:53:38.353Z,12.19
2023-04-22T04:54:38.360Z,12.19
2023-04-22T04:55:39.024Z,12.20
2023-04-22T04:56:38.320Z,12.21
2023-04-22T04:57:39.282Z,12.22
2023-04-22T04:58:38.998Z,12.23
2023-04-22T04:59:39.292Z,12.23
2023-04-22T05:00:38.279Z,12.25
2023-04-22T05:01:38.299Z,12.27
2023-04-22T05:02:39.052Z,12.28
2023-04-22T05:03:38.473Z,12.30
2023-04-22T05:04:38.342Z,12.31
2023-04-22T05:05:38.232Z,12.33
2023-04-22T05:06:38.926Z,12.35
2023-04-22T05:07:38.241Z,12.36
2023-04-22T05:08:38.927Z,12.39
2023-04-22T05:09:39.119Z,12.40
2023-04-22T05:10:38.869Z,12.41
2023-04-22T05:11:38.172Z,12.43
2023-04-22T05:12:38.820Z,12.45
2023-04-22T05:13:38.151Z,12.46
2023-04-22T05:14:38.826Z,12.49
2023-04-22T05:15:38.812Z,12.51
2023-04-22T05:16:38.189Z,12.52
2023-04-22T05:17:38.789Z,12.54
2023-04-22T05:18:38.781Z,12.55
2023-04-22T05:19:39.010Z,12.57
2023-04-22T05:20:38.080Z,12.59
2023-04-22T05:21:38.749Z,12.61
2023-04-22T05:22:38.066Z,12.62
2023-04-22T05:23:38.043Z,12.64
2023-04-22T05:24:38.738Z,12.66
2023-04-22T05:25:38.701Z,12.68
2023-04-22T05:26:38.693Z,12.70
2023-04-22T05:27:38.032Z,12.74
2023-04-22T05:28:37.987Z,12.76
2023-04-22T05:29:38.469Z,12.78
2023-04-22T05:30:38.654Z,12.80
2023-04-22T05:31:38.724Z,12.83
2023-04-22T05:32:37.966Z,12.85
2023-04-22T05:33:38.796Z,12.87
2023-04-22T05:34:38.609Z,12.88
2023-04-22T05:35:37.927Z,12.90
2023-04-22T05:36:37.910Z,12.93
2023-04-22T05:37:38.703Z,12.95
2023-04-22T05:38:38.025Z,12.96
2023-04-22T05:39:38.051Z,12.98
2023-04-22T05:40:37.858Z,13.01
2023-04-22T05:41:38.532Z,13.02
2023-04-22T05:42:38.274Z,13.04
2023-04-22T05:43:38.126Z,13.06
2023-04-22T05:44:38.800Z,13.10
2023-04-22T05:45:37.820Z,13.11
2023-04-22T05:46:38.453Z,13.13
2023-04-22T05:47:38.484Z,-143.64
2023-04-22T05:48:37.872Z,-143.64
2023-04-22T05:49:38.775Z,-143.64
2023-04-22T05:51:38.871Z,-143.64
2023-04-22T05:52:38.443Z,-143.64
2023-04-22T05:53:38.467Z,-143.64
2023-04-22T05:54:38.400Z,-143.64
2023-04-22T05:55:38.454Z,-143.64
2023-04-22T05:56:38.449Z,-143.64
2023-04-22T05:57:39.026Z,-143.64
2023-04-22T05:58:37.837Z,-143.64
2023-04-22T05:59:37.784Z,-143.64
2023-04-22T06:00:38.324Z,-143.64
2023-04-22T06:01:38.057Z,-143.64
2023-04-22T06:02:37.969Z,-143.64
2023-04-22T06:03:38.023Z,-143.64
2023-04-22T06:04:38.321Z,-143.64
2023-04-22T06:05:37.674Z,-143.64
2023-04-22T06:06:37.576Z,-143.64
2023-04-22T06:07:37.575Z,-143.64
2023-04-22T06:08:37.547Z,-143.64
2023-04-22T06:09:38.406Z,-143.64
2023-04-22T06:10:37.536Z,-143.64
2023-04-22T06:11:37.534Z,-143.64
2023-04-22T06:12:37.536Z,-143.64
2023-04-22T06:13:38.187Z,-143.64
2023-04-22T06:14:37.501Z,-143.64
2023-04-22T06:15:38.202Z,-143.64
2023-04-22T06:16:38.153Z,-143.64
2023-04-22T06:17:37.492Z,-143.64
2023-04-22T06:18:38.577Z,-143.64
2023-04-22T06:19:37.597Z,-143.64
2023-04-22T06:20:38.104Z,-143.64
2023-04-22T06:21:37.412Z,-143.64
2023-04-22T06:22:37.416Z,-143.64
2023-04-22T06:23:38.075Z,-143.64
2023-04-22T06:24:37.376Z,-143.64
2023-04-22T06:25:37.374Z,-143.64
2023-04-22T06:26:38.043Z,-143.64
2023-04-22T06:27:38.016Z,-143.64
2023-04-22T06:28:37.381Z,-143.64
2023-04-22T06:29:37.539Z,-143.64
2023-04-22T06:30:37.308Z,-143.64
2023-04-22T06:31:37.327Z,-143.64
2023-04-22T06:32:37.329Z,-143.64
2023-04-22T06:33:37.386Z,-143.64
2023-04-22T06:34:37.255Z,-143.64
2023-04-22T06:35:37.953Z,-143.64
2023-04-22T06:36:37.984Z,-143.64
2023-04-22T06:37:37.917Z,-143.64
2023-04-22T06:38:37.372Z,-143.64
2023-04-22T06:39:37.417Z,-143.64
2023-04-22T06:40:37.887Z,-143.64
2023-04-22T06:41:38.223Z,-143.64
2023-04-22T06:42:37.310Z,-143.64
2023-04-22T06:43:37.179Z,-143.64
2023-04-22T06:44:37.912Z,-143.64
2023-04-22T06:45:37.148Z,-143.64
2023-04-22T06:46:37.216Z,-143.64
2023-04-22T06:47:37.872Z,-143.64
2023-04-22T06:48:37.122Z,-143.64
2023-04-22T06:49:37.351Z,-143.64
2023-04-22T06:50:37.788Z,-143.64
2023-04-22T06:51:37.747Z,-143.64
2023-04-22T06:52:37.769Z,-143.64
2023-04-22T06:53:37.746Z,-143.64
2023-04-22T06:54:37.039Z,-143.64
2023-04-22T06:55:37.024Z,-143.64
2023-04-22T06:56:37.684Z,-143.64
2023-04-22T06:57:38.053Z,-143.64
2023-04-22T06:58:36.991Z,-143.64
2023-04-22T06:59:37.921Z,-143.64
2023-04-22T07:00:37.006Z,-143.64
2023-04-22T07:01:37.043Z,-143.64
2023-04-22T07:02:37.751Z,-143.64
2023-04-22T07:03:37.759Z,-143.64
2023-04-22T07:04:37.692Z,-143.64
2023-04-22T07:05:39.564Z,-143.64
2023-04-22T07:06:36.928Z,-143.64
2023-04-22T07:07:37.595Z,-143.64
2023-04-22T07:08:37.590Z,-143.64
2023-04-22T07:09:37.949Z,-143.64
2023-04-22T07:10:37.565Z,-143.64
2023-04-22T07:11:37.541Z,-143.64
2023-04-22T07:12:37.536Z,-143.64
2023-04-22T07:13:37.531Z,-143.64
2023-04-22T07:14:37.510Z,-143.64
2023-04-22T07:15:36.871Z,-143.64
2023-04-22T07:16:36.898Z,-143.64
2023-04-22T07:17:36.844Z,-143.64
2023-04-22T07:18:36.818Z,-143.64
2023-04-22T07:19:36.937Z,-143.64
2023-04-22T07:20:36.754Z,-143.64
2023-04-22T07:21:36.768Z,-143.64
2023-04-22T07:22:37.426Z,-143.64
2023-04-22T07:23:37.407Z,-143.64
2023-04-22T07:24:37.397Z,-143.64
2023-04-22T07:25:36.710Z,-143.64
2023-04-22T07:26:37.360Z,-143.64
2023-04-22T07:27:37.631Z,-143.64
2023-04-22T07:28:36.662Z,-143.64
2023-04-22T07:29:37.554Z,-143.64
2023-04-22T07:30:37.329Z,-143.64
2023-04-22T07:31:37.352Z,-143.64
2023-04-22T07:32:37.329Z,-143.64
2023-04-22T07:33:37.569Z,-143.64
2023-04-22T07:34:37.291Z,-143.64
2023-04-22T07:35:37.576Z,-143.64
2023-04-22T07:36:37.248Z,-143.64
2023-04-22T07:37:37.257Z,-143.64
2023-04-22T07:38:37.241Z,-143.64
2023-04-22T07:39:37.847Z,-143.64
2023-04-22T07:40:37.506Z,-143.64
2023-04-22T07:41:37.492Z,-143.64
2023-04-22T07:42:37.465Z,-143.64
2023-04-22T07:43:37.489Z,-143.64
2023-04-22T07:44:39.433Z,-143.64
2023-04-22T07:45:37.480Z,-143.64
2023-04-22T07:46:37.160Z,-143.64
2023-04-22T07:47:37.193Z,-143.64
2023-04-22T07:48:37.400Z,-143.64
2023-04-22T07:49:37.561Z,-143.64
2023-04-22T07:50:38.815Z,-143.64
2023-04-22T07:51:37.414Z,-143.64
2023-04-22T07:52:37.360Z,-143.64
2023-04-22T07:53:37.383Z,-143.64
2023-04-22T07:54:37.336Z,-143.64
2023-04-22T07:55:37.320Z,-143.64
2023-04-22T07:56:37.027Z,-143.64
2023-04-22T07:57:37.306Z,-143.64
2023-04-22T07:58:37.313Z,-143.64
2023-04-22T07:59:37.414Z,-143.64
2023-04-22T08:00:37.056Z,-143.64
2023-04-22T08:01:37.293Z,-143.64
2023-04-22T08:02:37.345Z,-143.64
2023-04-22T08:03:37.471Z,-143.64
2023-04-22T08:04:37.282Z,-143.64
2023-04-22T08:05:36.959Z,-143.64
2023-04-22T08:06:37.220Z,-143.64
2023-04-22T08:07:37.183Z,-143.64
2023-04-22T08:08:37.174Z,-143.64
2023-04-22T08:09:37.138Z,-143.64
2023-04-22T08:10:37.153Z,-143.64
2023-04-22T08:11:37.174Z,-143.64
2023-04-22T08:12:37.138Z,-143.64
2023-04-22T08:13:36.870Z,-143.64
2023-04-22T08:14:37.117Z,-143.64
2023-04-22T08:15:36.880Z,-143.64
2023-04-22T08:16:37.138Z,-143.64
2023-04-22T08:17:37.117Z,-143.64
2023-04-22T08:18:36.813Z,-143.64
2023-04-22T08:19:36.954Z,-143.64
2023-04-22T08:20:37.061Z,-143.64
2023-04-22T08:21:37.062Z,-143.64
2023-04-22T08:22:37.050Z,-143.64
2023-04-22T08:23:37.030Z,-143.64
2023-04-22T08:24:36.755Z,-143.64
2023-04-22T08:25:37.015Z,-143.64
2023-04-22T08:26:36.717Z,-143.64
2023-04-22T08:27:36.988Z,-143.64
2023-04-22T08:28:36.974Z,-143.64
2023-04-22T08:29:36.720Z,-143.64
2023-04-22T08:30:36.711Z,-143.64
2023-04-22T08:31:37.015Z,-143.64
2023-04-22T08:32:36.691Z,-143.64
2023-04-22T08:33:36.929Z,-143.64
2023-04-22T08:34:37.352Z,-143.64
2023-04-22T08:35:36.642Z,-143.64
2023-04-22T08:36:36.920Z,-143.64
2023-04-22T08:37:36.611Z,-143.64
2023-04-22T08:38:36.874Z,-143.64
2023-04-22T08:39:37.039Z,-143.64
2023-04-22T08:40:36.840Z,-143.64
2023-04-22T08:41:36.847Z,-143.64
2023-04-22T08:42:36.834Z,-143.64
2023-04-22T08:43:36.574Z,-143.64
2023-04-22T08:44:36.805Z,-143.64
2023-04-22T08:45:36.808Z,-143.64
2023-04-22T08:46:36.852Z,-143.64
2023-04-22T08:47:36.526Z,-143.64
2023-04-22T08:48:36.490Z,-143.64
2023-04-22T08:49:36.751Z,-143.64
2023-04-22T08:50:36.471Z,-143.64
2023-04-22T08:51:36.461Z,-143.64
2023-04-22T08:52:36.453Z,-143.64
2023-04-22T08:53:36.704Z,-143.64
2023-04-22T08:54:36.685Z,-143.64
2023-04-22T08:55:36.436Z,-143.64
2023-04-22T08:56:36.682Z,-143.64
2023-04-22T08:57:36.664Z,-143.64
2023-04-22T08:58:36.662Z,-143.64
2023-04-22T08:59:36.703Z,-143.64
2023-04-22T09:00:36.390Z,-143.64
2023-04-22T09:01:36.383Z,-143.64
2023-04-22T09:02:36.644Z,-143.64
2023-04-22T09:03:36.658Z,-143.64
2023-04-22T09:04:36.742Z,-143.64
2023-04-22T09:05:36.306Z,-143.64
2023-04-22T09:06:36.591Z,-143.64
2023-04-22T09:07:36.549Z,-143.64
2023-04-22T09:08:36.552Z,-143.64
2023-04-22T09:09:36.618Z,-143.64
2023-04-22T09:10:36.252Z,-143.64
2023-04-22T09:11:36.518Z,-143.64
2023-04-22T09:12:36.476Z,-143.64
2023-04-22T09:13:36.240Z,-143.64
2023-04-22T09:14:36.472Z,-143.64
2023-04-22T09:15:36.204Z,-143.64
2023-04-22T09:16:36.246Z,-143.64
2023-04-22T09:17:36.207Z,-143.64
2023-04-22T09:18:36.168Z,-143.64
2023-04-22T09:19:36.570Z,-143.64
2023-04-22T09:20:36.386Z,-143.64
2023-04-22T09:21:36.409Z,-143.64
2023-04-22T09:22:36.383Z,-143.64
2023-04-22T09:23:36.372Z,-143.64
2023-04-22T09:24:36.391Z,-143.64
2023-04-22T09:25:36.335Z,-143.64
2023-04-22T09:26:36.346Z,-143.64
2023-04-22T09:27:36.067Z,-143.64
2023-04-22T09:28:36.066Z,-143.64
2023-04-22T09:29:36.157Z,-143.64
2023-04-22T09:30:36.037Z,-143.64
2023-04-22T09:31:35.383Z,-143.64
2023-04-22T09:32:37.317Z,-143.64
2023-04-22T09:33:35.327Z,-143.64
2023-04-22T09:34:37.522Z,-143.64
2023-04-22T09:35:37.238Z,-143.64
2023-04-22T09:36:37.257Z,-143.64
2023-04-22T09:37:48.529Z,-143.64
2023-04-22T09:38:37.726Z,-143.64
2023-04-22T09:39:37.398Z,-143.64
2023-04-22T09:40:37.177Z,-143.64
2023-04-22T09:41:37.187Z,-143.64
2023-04-22T09:42:37.176Z,-143.64
2023-04-22T09:43:35.893Z,-143.64
2023-04-22T09:44:37.162Z,-143.64
2023-04-22T09:45:37.185Z,-143.64
2023-04-22T09:46:37.176Z,-143.64
2023-04-22T09:47:35.914Z,-143.64
2023-04-22T09:48:37.139Z,-143.64
2023-04-22T09:49:37.434Z,-143.64
2023-04-22T09:50:37.083Z,-143.64
2023-04-22T09:51:37.082Z,-143.64
2023-04-22T09:52:37.055Z,-143.64
2023-04-22T09:53:37.049Z,-143.64
2023-04-22T09:54:37.027Z,-143.64
2023-04-22T09:55:37.024Z,-143.64
2023-04-22T09:56:36.034Z,-143.64
2023-04-22T09:57:36.996Z,-143.64
2023-04-22T09:58:36.983Z,-143.64
2023-04-22T09:59:37.006Z,-143.64
2023-04-22T10:00:35.966Z,-143.64
2023-04-22T10:01:37.065Z,-143.64
2023-04-22T10:02:37.067Z,-143.64
2023-04-22T10:03:36.994Z,-143.64
2023-04-22T10:04:36.044Z,-143.64
2023-04-22T10:05:36.950Z,-143.64
2023-04-22T10:06:36.420Z,-143.64
2023-04-22T10:07:35.660Z,-143.64
2023-04-22T10:08:35.629Z,-143.64
2023-04-22T10:09:35.623Z,-143.64
2023-04-22T10:10:35.605Z,-143.64
2023-04-22T10:11:35.576Z,-143.64
2023-04-22T10:12:35.974Z,-143.64
2023-04-22T10:13:34.922Z,-143.64
2023-04-22T10:14:35.565Z,-143.64
2023-04-22T10:15:35.551Z,-143.64
2023-04-22T10:16:36.877Z,-143.64
2023-04-22T10:17:34.855Z,-143.64
2023-04-22T10:18:35.790Z,-143.64
2023-04-22T10:19:35.767Z,-143.64
2023-04-22T10:20:36.762Z,-143.64
2023-04-22T10:21:35.463Z,-143.64
2023-04-22T10:22:35.472Z,-143.64
2023-04-22T10:23:34.777Z,-143.64
2023-04-22T10:24:34.760Z,-143.64
2023-04-22T10:25:34.749Z,-143.64
2023-04-22T10:26:35.414Z,-143.64
2023-04-22T10:27:35.413Z,-143.64
2023-04-22T10:28:35.413Z,-143.64
2023-04-22T10:29:35.660Z,-143.64
2023-04-22T10:30:34.698Z,-143.64
2023-04-22T10:31:35.678Z,-143.64
2023-04-22T10:32:36.641Z,-143.64
2023-04-22T10:33:36.615Z,-143.64
2023-04-22T10:34:35.344Z,-143.64
2023-04-22T10:35:34.646Z,-143.64
2023-04-22T10:36:35.305Z,-143.64
2023-04-22T10:37:35.314Z,-143.64
2023-04-22T10:38:35.296Z,-143.64
2023-04-22T10:39:35.291Z,-143.64
2023-04-22T10:40:35.256Z,-143.64
2023-04-22T10:41:35.293Z,-143.64
2023-04-22T10:42:35.522Z,-143.64
2023-04-22T10:43:35.247Z,-143.64
2023-04-22T10:44:35.398Z,-143.64
2023-04-22T10:45:36.495Z,-143.64
2023-04-22T10:46:34.922Z,-143.64
2023-04-22T10:47:35.257Z,-143.64
2023-04-22T10:48:35.189Z,-143.64
2023-04-22T10:49:34.490Z,-143.64
2023-04-22T10:50:35.149Z,-143.64
2023-04-22T10:51:35.172Z,-143.64
2023-04-22T10:52:35.167Z,-143.64
2023-04-22T10:53:34.444Z,-143.64
2023-04-22T10:54:34.437Z,-143.64
2023-04-22T10:55:35.093Z,-143.64
2023-04-22T10:56:36.289Z,-143.64
2023-04-22T10:57:35.095Z,-143.64
2023-04-22T10:58:35.092Z,-143.64
2023-04-22T10:59:35.073Z,-143.64
2023-04-22T11:00:45.929Z,-143.64
2023-04-22T11:01:36.058Z,-143.64
2023-04-22T11:02:35.110Z,-143.64
2023-04-22T11:03:34.629Z,-143.64
2023-04-22T11:04:34.371Z,-143.64
2023-04-22T11:05:34.336Z,-143.64
2023-04-22T11:06:34.994Z,-143.64
2023-04-22T11:07:34.987Z,-143.64
2023-04-22T11:08:34.970Z,-143.64
2023-04-22T11:09:35.177Z,-143.64
2023-04-22T11:10:34.278Z,-143.64
2023-04-22T11:11:36.201Z,-143.64
2023-04-22T11:12:34.244Z,-143.64
2023-04-22T11:13:34.241Z,-143.64
2023-04-22T11:14:34.236Z,-143.64
2023-04-22T11:15:34.245Z,-143.64
2023-04-22T11:16:34.272Z,-143.64
2023-04-22T11:17:34.186Z,-143.64
2023-04-22T11:18:34.869Z,-143.64
2023-04-22T11:19:34.858Z,-143.64
2023-04-22T11:20:34.183Z,-143.64
2023-04-22T11:21:35.092Z,-143.64
2023-04-22T11:22:34.821Z,-143.64
2023-04-22T11:23:34.812Z,-143.64
2023-04-22T11:24:34.795Z,-143.64
2023-04-22T11:25:34.111Z,-143.64
2023-04-22T11:26:35.580Z,-143.64
2023-04-22T11:27:34.765Z,-143.64
2023-04-22T11:28:34.105Z,-143.64
2023-04-22T11:29:34.750Z,-143.64
2023-04-22T11:30:34.056Z,-143.64
2023-04-22T11:31:34.741Z,-143.64
2023-04-22T11:32:34.041Z,-143.64
2023-04-22T11:33:34.030Z,-143.64
2023-04-22T11:34:34.688Z,-143.64
2023-04-22T11:35:34.663Z,-143.64
2023-04-22T11:36:34.663Z,-143.64
2023-04-22T11:37:33.979Z,-143.64
2023-04-22T11:38:34.644Z,-143.64
2023-04-22T11:39:33.961Z,-143.64
2023-04-22T11:40:37.843Z,-143.64
2023-04-22T11:41:34.855Z,-143.64
2023-04-22T11:42:33.923Z,-143.64
2023-04-22T11:43:33.877Z,-143.64
2023-04-22T11:44:34.581Z,-143.64
2023-04-22T11:45:34.592Z,-143.64
2023-04-22T11:46:34.654Z,-143.64
2023-04-22T11:47:34.603Z,-143.64
2023-04-22T11:48:33.859Z,-143.64
2023-04-22T11:49:34.529Z,-143.64
2023-04-22T11:50:34.515Z,-143.64
2023-04-22T11:51:33.835Z,-143.64
2023-04-22T11:52:33.804Z,-143.64
2023-04-22T11:53:34.481Z,-143.64
2023-04-22T11:54:34.487Z,-143.64
2023-04-22T11:55:33.779Z,-143.64
2023-04-22T11:56:34.432Z,-143.64
2023-04-22T11:57:34.440Z,-143.64
2023-04-22T11:58:33.746Z,-143.64
2023-04-22T11:59:34.423Z,-143.64
2023-04-22T12:00:34.418Z,-143.64
2023-04-22T12:01:34.392Z,-143.64
2023-04-22T12:02:34.485Z,-143.64
2023-04-22T12:03:34.468Z,-143.64
2023-04-22T12:04:33.659Z,-143.64
2023-04-22T12:05:33.711Z,-143.64
2023-04-22T12:06:33.669Z,-143.64
2023-04-22T12:07:33.647Z,-143.64
2023-04-22T12:08:34.314Z,-143.64
2023-04-22T12:09:33.616Z,-143.64
2023-04-22T12:10:34.294Z,-143.64
2023-04-22T12:11:34.265Z,-143.64
2023-04-22T12:12:34.272Z,-143.64
2023-04-22T12:13:33.580Z,-143.64
2023-04-22T12:14:34.253Z,-143.64
2023-04-22T12:15:34.240Z,-143.64
2023-04-22T12:16:34.272Z,-143.64
2023-04-22T12:17:34.244Z,-143.64
2023-04-22T12:18:33.513Z,-143.64
2023-04-22T12:19:33.508Z,-143.64
2023-04-22T12:20:33.525Z,-143.64
2023-04-22T12:21:34.172Z,-143.64
2023-04-22T12:22:33.481Z,-143.64
2023-04-22T12:23:34.150Z,-143.64
2023-04-22T12:24:33.470Z,-143.64
2023-04-22T12:25:33.489Z,-143.64
2023-04-22T12:26:35.387Z,-143.64
2023-04-22T12:27:33.417Z,-143.64